createdAt,value
2023-02-16T00:04:29.717Z,9.20
2023-02-16T00:19:36.537Z,8.90
2023-02-16T00:34:41.663Z,8.90
2023-02-16T00:49:45.411Z,8.60
2023-02-16T01:04:47.919Z,8.30
2023-02-16T01:19:50.401Z,8.40
2023-02-16T01:34:52.760Z,8.30
2023-02-16T01:49:55.214Z,8.30
2023-02-16T02:05:25.389Z,8.40
2023-02-16T02:20:52.694Z,8.60
2023-02-16T02:36:04.243Z,8.60
2023-02-16T02:51:31.976Z,8.60
2023-02-16T03:06:40.548Z,8.60
2023-02-16T03:22:02.283Z,8.50
2023-02-16T03:37:05.328Z,8.30
2023-02-16T03:52:07.762Z,8.30
2023-02-16T04:07:10.091Z,8.40
2023-02-16T04:22:12.688Z,8.30
2023-02-16T04:37:15.287Z,8.20
2023-02-16T04:52:17.818Z,8.00
2023-02-16T05:07:20.388Z,8.10
2023-02-16T05:22:23.337Z,8.20
2023-02-16T05:37:25.798Z,8.20
2023-02-16T05:52:28.210Z,8.50
2023-02-16T06:07:30.621Z,8.50
2023-02-16T06:22:33.004Z,8.70
2023-02-16T06:37:35.328Z,8.70
2023-02-16T06:52:37.767Z,8.60
2023-02-16T07:07:40.366Z,8.50
2023-02-16T07:22:42.863Z,8.40
2023-02-16T07:37:45.380Z,8.50
2023-02-16T07:52:47.748Z,8.80
2023-02-16T08:07:50.236Z,9.00
2023-02-16T08:22:54.417Z,9.70
2023-02-16T08:37:56.786Z,10.00
2023-02-16T08:52:59.215Z,9.90
2023-02-16T09:08:02.515Z,10.00
2023-02-16T09:23:06.590Z,10.50
2023-02-16T09:38:10.737Z,10.40
2023-02-16T09:53:30.383Z,10.10
2023-02-16T10:08:38.827Z,10.00
2023-02-16T10:23:57.681Z,10.10
2023-02-16T10:39:24.688Z,10.20
2023-02-16T10:54:29.460Z,10.30
2023-02-16T11:09:32.928Z,10.10
2023-02-16T11:24:37.780Z,10.40
2023-02-16T11:39:47.128Z,10.40
2023-02-16T11:54:57.896Z,10.80
2023-02-16T12:10:00.388Z,10.80
2023-02-16T12:25:26.253Z,10.80
2023-02-16T12:40:51.832Z,11.00
2023-02-16T12:56:03.558Z,11.00
2023-02-16T13:11:16.672Z,11.30
2023-02-16T13:26:28.992Z,11.60
2023-02-16T13:41:52.302Z,11.90
2023-02-16T13:56:55.157Z,12.00
2023-02-16T14:12:22.176Z,12.30
2023-02-16T14:28:01.787Z,12.40
2023-02-16T14:58:33.118Z,13.20
2023-02-16T15:13:39.798Z,13.30
2023-02-16T15:28:51.150Z,13.00
2023-02-16T15:43:54.061Z,13.10
2023-02-16T15:59:10.642Z,12.80
2023-02-16T16:14:20.459Z,12.80
2023-02-16T16:29:46.931Z,12.70
2023-02-16T16:44:54.938Z,12.40
2023-02-16T16:59:58.676Z,12.10
2023-02-16T17:15:02.398Z,12.20
2023-02-16T17:30:06.160Z,12.00
2023-02-16T17:45:22.675Z,12.10
2023-02-16T18:00:29.383Z,11.90
2023-02-16T18:15:33.944Z,11.80
2023-02-16T18:30:36.672Z,11.40
2023-02-16T18:45:42.419Z,11.40
2023-02-16T19:02:41.894Z,10.90
2023-02-16T19:17:48.233Z,10.40
2023-02-16T19:32:51.153Z,10.60
2023-02-16T19:47:53.763Z,10.60
2023-02-16T20:03:00.274Z,10.70
2023-02-16T20:18:04.002Z,10.50
2023-02-16T20:33:06.591Z,10.70
2023-02-16T20:48:10.408Z,10.80
2023-02-16T21:03:13.124Z,10.70
2023-02-16T21:18:15.759Z,10.90
2023-02-16T21:33:18.749Z,10.80
2023-02-16T21:48:39.869Z,10.90
2023-02-16T22:03:42.537Z,10.90
2023-02-16T22:18:45.146Z,11.00
2023-02-16T22:33:48.533Z,11.10
2023-02-16T22:48:52.092Z,11.00
2023-02-16T23:03:59.219Z,11.00
2023-02-16T23:19:02.019Z,11.10
2023-02-16T23:34:06.669Z,11.00
2023-02-16T23:49:09.410Z,11.00
